createdAt,value
2019-04-20T00:01:01.580Z,8.45
2019-04-20T00:03:39.430Z,12.70
2019-04-20T00:06:12.851Z,9.93
2019-04-20T00:08:45.661Z,11.18
2019-04-20T00:11:27.350Z,11.88
2019-04-20T00:14:04.094Z,12.73
2019-04-20T00:16:40.029Z,11.68
2019-04-20T00:19:10.750Z,7.90
2019-04-20T00:21:56.368Z,7.47
2019-04-20T00:24:33.628Z,6.67
2019-04-20T00:27:28.199Z,6.97
2019-04-20T00:29:49.577Z,4.90
2019-04-20T00:32:17.617Z,7.33
2019-04-20T00:34:43.323Z,9.03
2019-04-20T00:37:12.838Z,7.03
2019-04-20T00:39:44.674Z,11.65
2019-04-20T00:42:17.673Z,8.75
2019-04-20T00:44:56.324Z,8.68
2019-04-20T00:47:34.922Z,10.80
2019-04-20T00:50:05.578Z,7.05
2019-04-20T00:52:32.916Z,6.30
2019-04-20T00:54:58.194Z,9.25
2019-04-20T00:57:38.022Z,9.60
2019-04-20T01:00:19.205Z,9.73
2019-04-20T01:02:46.679Z,10.78
2019-04-20T01:05:22.881Z,7.83
2019-04-20T01:08:00.553Z,9.40
2019-04-20T01:10:35.381Z,9.33
2019-04-20T01:13:11.063Z,11.00
2019-04-20T01:15:46.357Z,9.25
2019-04-20T01:18:07.053Z,9.23
2019-04-20T01:20:38.897Z,6.75
2019-04-20T01:23:15.258Z,11.93
2019-04-20T01:25:45.090Z,7.85
2019-04-20T01:28:35.412Z,14.35
2019-04-20T01:31:00.039Z,13.10
2019-04-20T01:33:31.882Z,12.73
2019-04-20T01:36:10.430Z,9.95
2019-04-20T01:38:40.020Z,17.75
2019-04-20T01:40:57.180Z,14.03
2019-04-20T01:43:29.061Z,14.65
2019-04-20T01:46:07.928Z,18.80
2019-04-20T01:48:35.586Z,15.60
2019-04-20T01:51:11.864Z,13.08
2019-04-20T01:53:55.945Z,14.55
2019-04-20T01:56:27.878Z,13.50
2019-04-20T01:59:06.084Z,17.25
2019-04-20T02:01:30.917Z,16.87
2019-04-20T02:04:17.181Z,22.13
2019-04-20T02:06:50.029Z,22.50
2019-04-20T02:09:20.466Z,22.00
2019-04-20T02:11:50.819Z,27.02
2019-04-20T02:14:31.389Z,30.57
2019-04-20T02:17:03.481Z,35.65
2019-04-20T02:19:37.707Z,32.03
2019-04-20T02:22:11.644Z,31.48
2019-04-20T02:24:30.090Z,22.40
2019-04-20T02:27:02.004Z,23.12
2019-04-20T02:29:54.776Z,20.68
2019-04-20T02:32:32.170Z,20.35
2019-04-20T02:35:07.231Z,26.25
2019-04-20T02:38:02.997Z,20.95
2019-04-20T02:40:35.961Z,19.80
2019-04-20T02:42:57.888Z,20.70
2019-04-20T02:45:40.504Z,18.60
2019-04-20T02:48:07.709Z,20.65
2019-04-20T02:50:37.920Z,21.62
2019-04-20T02:53:13.789Z,29.15
2019-04-20T03:00:33.935Z,28.32
2019-04-20T03:02:55.894Z,23.38
2019-04-20T03:05:28.256Z,34.30
2019-04-20T03:08:08.948Z,21.95
2019-04-20T03:10:46.309Z,25.17
2019-04-20T03:13:15.908Z,31.82
2019-04-20T03:15:48.152Z,25.45
2019-04-20T03:18:22.311Z,22.62
2019-04-20T03:20:53.625Z,38.85
2019-04-20T03:23:31.313Z,20.00
2019-04-20T03:26:09.592Z,26.02
2019-04-20T03:28:54.054Z,27.35
2019-04-20T03:32:25.205Z,24.25
2019-04-20T03:34:47.445Z,30.15
2019-04-20T03:37:04.725Z,19.90
2019-04-20T03:39:23.255Z,25.27
2019-04-20T03:41:43.470Z,22.75
2019-04-20T03:44:15.353Z,51.35
2019-04-20T03:46:51.336Z,50.90
2019-04-20T03:49:43.106Z,43.02
2019-04-20T03:52:23.341Z,29.70
2019-04-20T03:54:57.394Z,32.25
2019-04-20T03:57:45.905Z,35.65
2019-04-20T04:00:26.885Z,35.03
2019-04-20T04:03:12.644Z,32.28
2019-04-20T04:05:40.798Z,17.32
2019-04-20T04:08:08.505Z,14.60
2019-04-20T04:10:47.893Z,12.65
2019-04-20T04:13:14.748Z,11.57
2019-04-20T04:15:52.228Z,10.75
2019-04-20T04:18:28.077Z,7.17
2019-04-20T04:21:01.092Z,10.28
2019-04-20T04:23:40.948Z,8.20
2019-04-20T04:26:16.102Z,10.65
2019-04-20T04:28:46.267Z,11.30
2019-04-20T04:31:24.617Z,33.35
2019-04-20T04:36:21.304Z,9.78
2019-04-20T04:39:05.475Z,7.55
2019-04-20T04:41:31.101Z,8.68
2019-04-20T04:44:06.117Z,11.83
2019-04-20T04:46:16.583Z,8.65
2019-04-20T04:48:49.849Z,14.80
2019-04-20T04:51:24.709Z,8.48
2019-04-20T04:54:01.182Z,8.30
2019-04-20T04:56:26.702Z,12.33
2019-04-20T04:58:56.311Z,9.00
2019-04-20T05:01:30.738Z,9.08
2019-04-20T05:04:22.839Z,8.45
2019-04-20T05:06:49.478Z,6.97
2019-04-20T05:09:10.413Z,7.53
2019-04-20T05:11:38.972Z,7.30
2019-04-20T05:14:16.864Z,6.87
2019-04-20T05:16:58.161Z,8.40
2019-04-20T05:19:37.009Z,6.37
2019-04-20T05:22:27.007Z,6.92
2019-04-20T05:24:43.838Z,6.92
2019-04-20T05:27:43.953Z,9.00
2019-04-20T05:29:50.846Z,7.78
2019-04-20T05:32:32.809Z,9.30
2019-04-20T05:35:14.961Z,10.80
2019-04-20T05:37:48.838Z,5.00
2019-04-20T05:40:22.651Z,5.50
2019-04-20T05:42:54.402Z,3.85
2019-04-20T05:45:22.362Z,6.30
2019-04-20T05:47:52.449Z,4.22
2019-04-20T05:50:33.218Z,5.15
2019-04-20T05:53:09.936Z,5.87
2019-04-20T05:55:35.984Z,5.75
2019-04-20T05:58:14.254Z,6.20
2019-04-20T06:00:47.709Z,4.85
2019-04-20T06:03:15.257Z,5.72
2019-04-20T06:05:59.365Z,5.15
2019-04-20T06:08:32.044Z,2.55
2019-04-20T06:10:56.211Z,5.78
2019-04-20T06:13:22.762Z,5.97
2019-04-20T06:16:07.438Z,5.20
2019-04-20T06:18:49.631Z,3.65
2019-04-20T06:21:41.550Z,2.77
2019-04-20T06:24:10.602Z,5.97
2019-04-20T06:26:49.052Z,5.12
2019-04-20T06:29:11.222Z,3.35
2019-04-20T06:31:47.213Z,3.60
2019-04-20T06:34:30.658Z,7.25
2019-04-20T06:37:06.841Z,4.00
2019-04-20T06:39:48.772Z,3.98
2019-04-20T06:44:35.409Z,5.70
2019-04-20T06:49:56.440Z,4.60
2019-04-20T06:52:27.524Z,4.28
2019-04-20T06:55:08.687Z,4.35
2019-04-20T06:57:55.716Z,3.20
2019-04-20T07:00:22.845Z,5.30
2019-04-20T07:05:22.368Z,4.17
2019-04-20T07:07:54.658Z,3.90
2019-04-20T07:10:44.231Z,4.42
2019-04-20T07:12:56.794Z,3.90
2019-04-20T07:15:29.045Z,2.35
2019-04-20T07:18:13.909Z,4.20
2019-04-20T07:20:54.012Z,4.30
2019-04-20T07:23:25.404Z,3.15
2019-04-20T07:25:47.366Z,4.22
2019-04-20T07:28:27.798Z,4.42
2019-04-20T07:30:52.150Z,6.40
2019-04-20T07:33:28.355Z,2.75
2019-04-20T07:35:56.202Z,2.05
2019-04-20T07:41:02.916Z,4.20
2019-04-20T07:43:30.096Z,3.12
2019-04-20T07:46:10.527Z,3.83
2019-04-20T07:48:36.826Z,2.95
2019-04-20T07:51:02.647Z,3.35
2019-04-20T07:53:36.664Z,2.08
2019-04-20T07:56:17.682Z,3.83
2019-04-20T07:58:43.379Z,4.03
2019-04-20T08:01:54.333Z,5.15
2019-04-20T08:04:24.434Z,3.08
2019-04-20T08:06:46.169Z,3.47
2019-04-20T08:09:24.741Z,5.90
2019-04-20T08:12:11.805Z,2.05
2019-04-20T08:14:42.388Z,3.98
2019-04-20T08:17:30.593Z,7.28
2019-04-20T08:19:41.078Z,6.40
2019-04-20T08:22:21.872Z,3.17
2019-04-20T08:24:42.820Z,2.35
2019-04-20T08:27:09.117Z,4.10
2019-04-20T08:29:53.709Z,1.90
2019-04-20T08:32:46.842Z,4.85
2019-04-20T08:35:25.956Z,7.20
2019-04-20T08:38:22.129Z,4.00
2019-04-20T08:40:31.367Z,3.67
2019-04-20T08:43:10.827Z,3.33
2019-04-20T08:45:45.816Z,4.60
2019-04-20T08:48:14.108Z,4.05
2019-04-20T08:50:41.352Z,6.25
2019-04-20T08:53:20.740Z,2.98
2019-04-20T08:55:41.564Z,3.35
2019-04-20T08:57:59.993Z,4.03
2019-04-20T09:00:38.741Z,6.25
2019-04-20T09:03:15.293Z,3.60
2019-04-20T09:05:48.997Z,3.00
2019-04-20T09:08:16.205Z,4.83
2019-04-20T09:11:00.269Z,4.15
2019-04-20T09:13:24.764Z,3.87
2019-04-20T09:15:47.091Z,5.28
2019-04-20T09:18:41.900Z,7.85
2019-04-20T09:21:15.143Z,4.42
2019-04-20T09:24:11.861Z,5.00
2019-04-20T09:26:37.386Z,4.45
2019-04-20T09:29:05.786Z,4.10
2019-04-20T09:31:40.828Z,5.78
2019-04-20T09:34:16.137Z,6.15
2019-04-20T09:36:49.612Z,2.98
2019-04-20T09:39:21.596Z,2.58
2019-04-20T09:42:00.381Z,4.22
2019-04-20T09:44:25.643Z,3.65
2019-04-20T09:46:56.786Z,4.78
2019-04-20T09:49:39.972Z,5.65
2019-04-20T09:52:15.749Z,9.03
2019-04-20T09:54:48.133Z,3.75
2019-04-20T09:57:22.330Z,4.85
2019-04-20T09:59:53.743Z,3.12
2019-04-20T10:02:15.712Z,24.80
2019-04-20T10:04:39.914Z,2.77
2019-04-20T10:07:17.586Z,2.87
2019-04-20T10:09:47.360Z,2.92
2019-04-20T10:12:19.649Z,3.92
2019-04-20T10:14:50.972Z,3.62
2019-04-20T10:17:21.950Z,3.58
2019-04-20T10:19:53.697Z,5.05
2019-04-20T10:22:24.653Z,2.30
2019-04-20T10:24:57.119Z,3.70
2019-04-20T10:27:28.466Z,3.22
2019-04-20T10:30:03.796Z,3.75
2019-04-20T10:32:38.841Z,5.10
2019-04-20T10:35:04.795Z,4.47
2019-04-20T10:37:37.765Z,3.80
2019-04-20T10:40:08.855Z,7.67
2019-04-20T10:42:39.541Z,4.55
2019-04-20T10:45:10.932Z,4.05
2019-04-20T10:47:43.058Z,2.10
2019-04-20T10:50:14.561Z,6.78
2019-04-20T10:52:45.800Z,6.33
2019-04-20T10:55:16.870Z,5.55
2019-04-20T10:57:47.540Z,4.80
2019-04-20T11:00:21.626Z,7.58
2019-04-20T11:02:52.554Z,4.42
2019-04-20T11:05:24.482Z,8.00
2019-04-20T11:07:56.725Z,2.85
2019-04-20T11:10:34.469Z,4.17
2019-04-20T11:13:01.222Z,3.30
2019-04-20T11:15:32.481Z,3.95
2019-04-20T11:18:03.749Z,3.83
2019-04-20T11:20:35.273Z,5.00
2019-04-20T11:23:06.634Z,6.30
2019-04-20T11:25:38.018Z,2.70
2019-04-20T11:28:10.223Z,4.50
2019-04-20T11:30:41.452Z,3.35
2019-04-20T11:33:12.516Z,4.50
2019-04-20T11:35:45.261Z,5.95
2019-04-20T11:38:17.363Z,3.17
2019-04-20T11:41:00.128Z,3.33
2019-04-20T11:43:21.772Z,4.00
2019-04-20T11:45:52.726Z,4.20
2019-04-20T11:48:23.797Z,5.20
2019-04-20T11:50:55.826Z,2.77
2019-04-20T11:53:27.264Z,3.83
2019-04-20T11:55:59.189Z,4.37
2019-04-20T11:58:31.070Z,3.22
2019-04-20T12:01:11.049Z,2.55
2019-04-20T12:03:50.750Z,4.20
2019-04-20T12:06:12.801Z,6.55
2019-04-20T12:08:45.367Z,4.37
2019-04-20T12:11:26.639Z,4.00
2019-04-20T12:13:49.033Z,2.30
2019-04-20T12:16:21.273Z,2.77
2019-04-20T12:18:52.521Z,3.15
2019-04-20T12:21:24.963Z,2.40
2019-04-20T12:23:58.292Z,4.45
2019-04-20T12:26:29.130Z,4.25
2019-04-20T12:29:01.376Z,4.22
2019-04-20T12:31:33.515Z,2.83
2019-04-20T12:34:04.575Z,2.62
2019-04-20T12:36:35.380Z,3.65
2019-04-20T12:39:09.047Z,3.92
2019-04-20T12:41:45.066Z,4.10
2019-04-20T12:44:12.496Z,10.63
2019-04-20T12:46:43.767Z,3.35
2019-04-20T12:49:15.839Z,4.08
2019-04-20T12:51:53.970Z,3.42
2019-04-20T12:54:18.990Z,6.65
2019-04-20T12:59:21.688Z,3.12
2019-04-20T13:01:53.371Z,2.87
2019-04-20T13:04:24.687Z,3.30
2019-04-20T13:06:57.531Z,3.30
2019-04-20T13:09:34.625Z,3.05
2019-04-20T13:12:10.606Z,5.87
2019-04-20T13:15:08.669Z,2.40
2019-04-20T13:17:40.035Z,2.47
2019-04-20T13:20:12.018Z,3.17
2019-04-20T13:22:44.138Z,4.72
2019-04-20T13:25:15.073Z,4.50
2019-04-20T13:27:47.317Z,5.22
2019-04-20T13:30:19.632Z,3.02
2019-04-20T13:32:51.602Z,2.83
2019-04-20T13:35:22.766Z,3.60
2019-04-20T13:37:54.175Z,6.22
2019-04-20T13:40:26.002Z,5.17
2019-04-20T13:42:56.664Z,3.50
2019-04-20T13:45:28.789Z,3.87
2019-04-20T13:47:59.630Z,2.47
2019-04-20T13:50:31.662Z,3.20
2019-04-20T13:53:03.341Z,5.28
2019-04-20T13:55:35.631Z,4.45
2019-04-20T13:58:13.898Z,2.95
2019-04-20T14:00:54.065Z,4.00
2019-04-20T14:03:27.026Z,3.12
2019-04-20T14:05:58.411Z,3.90
2019-04-20T14:08:29.698Z,3.55
2019-04-20T14:11:01.572Z,3.70
2019-04-20T14:13:42.852Z,3.20
2019-04-20T14:16:11.238Z,4.53
2019-04-20T14:18:42.983Z,3.08
2019-04-20T14:21:14.246Z,4.00
2019-04-20T14:30:50.020Z,4.33
2019-04-20T14:33:21.186Z,3.67
2019-04-20T14:35:52.783Z,7.40
2019-04-20T14:38:24.271Z,3.92
2019-04-20T14:40:55.148Z,6.50
2019-04-20T14:43:26.878Z,4.35
2019-04-20T14:45:58.740Z,5.75
2019-04-20T14:48:30.974Z,2.37
2019-04-20T14:51:01.874Z,4.37
2019-04-20T14:53:33.607Z,2.85
2019-04-20T14:56:05.381Z,3.20
2019-04-20T14:58:42.155Z,4.00
2019-04-20T15:01:34.593Z,4.65
2019-04-20T15:04:11.534Z,3.75
2019-04-20T15:06:39.788Z,4.22
2019-04-20T15:09:10.918Z,4.50
2019-04-20T15:11:44.285Z,6.78
2019-04-20T15:14:14.590Z,3.83
2019-04-20T15:16:46.757Z,5.67
2019-04-20T15:19:19.172Z,4.60
2019-04-20T15:22:03.260Z,3.25
2019-04-20T15:24:35.532Z,2.92
2019-04-20T15:27:06.773Z,4.65
2019-04-20T15:29:38.240Z,8.50
2019-04-20T15:32:10.210Z,5.20
2019-04-20T15:34:41.043Z,5.45
2019-04-20T15:37:12.102Z,6.00
2019-04-20T15:39:43.263Z,5.08
2019-04-20T15:42:15.043Z,5.17
2019-04-20T15:44:46.995Z,4.40
2019-04-20T15:47:17.987Z,6.90
2019-04-20T15:49:49.788Z,4.28
2019-04-20T15:52:27.506Z,5.33
2019-04-20T15:54:53.706Z,3.83
2019-04-20T15:57:27.680Z,3.72
2019-04-20T15:59:58.309Z,6.12
2019-04-20T16:02:41.235Z,3.85
2019-04-20T16:05:14.420Z,4.58
2019-04-20T16:07:52.573Z,5.40
2019-04-20T16:10:19.236Z,7.45
2019-04-20T16:13:04.810Z,5.28
2019-04-20T16:15:27.308Z,6.40
2019-04-20T16:17:58.888Z,7.17
2019-04-20T16:20:43.536Z,3.98
2019-04-20T16:23:02.840Z,4.87
2019-04-20T16:25:53.350Z,5.80
2019-04-20T16:28:25.444Z,7.70
2019-04-20T16:30:59.366Z,7.03
2019-04-20T16:33:30.749Z,7.90
2019-04-20T16:36:04.704Z,6.60
2019-04-20T16:38:35.419Z,6.80
2019-04-20T16:41:06.707Z,10.93
2019-04-20T16:43:42.540Z,10.55
2019-04-20T16:46:10.973Z,19.57
2019-04-20T16:48:42.210Z,27.67
2019-04-20T16:51:13.384Z,34.10
2019-04-20T16:53:45.651Z,42.08
2019-04-20T16:56:19.016Z,62.43
2019-04-20T16:58:54.625Z,54.00
2019-04-20T17:01:23.630Z,99.67
2019-04-20T17:04:06.527Z,141.32
2019-04-20T17:06:27.774Z,69.53
2019-04-20T17:08:58.838Z,98.80
2019-04-20T17:11:30.132Z,61.53
2019-04-20T17:14:02.130Z,65.35
2019-04-20T17:16:33.698Z,56.68
2019-04-20T17:19:05.953Z,57.58
2019-04-20T17:21:37.331Z,61.00
2019-04-20T17:24:09.081Z,54.93
2019-04-20T17:26:47.590Z,58.75
2019-04-20T17:29:23.939Z,64.30
2019-04-20T17:31:59.501Z,66.25
2019-04-20T17:34:58.377Z,60.03
2019-04-20T17:37:15.000Z,59.00
2019-04-20T17:40:06.471Z,54.95
2019-04-20T17:42:33.305Z,132.90
2019-04-20T17:45:00.773Z,104.60
2019-04-20T17:47:43.186Z,76.77
2019-04-20T17:50:16.688Z,69.75
2019-04-20T17:52:49.575Z,84.83
2019-04-20T17:55:03.420Z,80.40
2019-04-20T17:57:35.256Z,70.42
2019-04-20T18:00:13.788Z,57.48
2019-04-20T18:03:04.307Z,50.98
2019-04-20T18:05:57.067Z,61.20
2019-04-20T18:08:31.123Z,61.65
2019-04-20T18:10:53.021Z,63.68
2019-04-20T18:13:20.291Z,64.05
2019-04-20T18:16:05.226Z,66.62
2019-04-20T18:18:39.832Z,68.30
2019-04-20T18:21:01.186Z,56.33
2019-04-20T18:23:36.355Z,62.70
2019-04-20T18:26:27.246Z,61.28
2019-04-20T18:29:03.670Z,65.65
2019-04-20T18:31:21.863Z,65.03
2019-04-20T18:33:54.244Z,57.58
2019-04-20T18:36:32.171Z,70.12
2019-04-20T18:39:02.669Z,68.42
2019-04-20T18:41:38.515Z,72.15
2019-04-20T18:44:02.699Z,67.67
2019-04-20T18:46:57.320Z,67.90
2019-04-20T18:49:18.605Z,65.72
2019-04-20T18:51:39.824Z,67.22
2019-04-20T18:54:16.256Z,67.70
2019-04-20T18:56:47.537Z,69.17
2019-04-20T18:59:16.735Z,82.10
2019-04-20T19:01:48.799Z,85.85
2019-04-20T19:04:19.839Z,102.22
2019-04-20T19:06:52.086Z,93.52
2019-04-20T19:09:28.101Z,107.30
2019-04-20T19:12:00.835Z,109.60
2019-04-20T19:14:49.238Z,99.42
2019-04-20T19:17:45.251Z,97.15
2019-04-20T19:20:29.035Z,100.10
2019-04-20T19:23:00.215Z,90.07
2019-04-20T19:25:35.331Z,76.42
2019-04-20T19:28:05.122Z,81.70
2019-04-20T19:30:46.089Z,90.70
2019-04-20T19:33:22.684Z,74.50
2019-04-20T19:35:52.235Z,55.83
2019-04-20T19:38:20.710Z,63.02
2019-04-20T19:40:56.505Z,48.75
2019-04-20T19:43:25.339Z,71.87
2019-04-20T19:46:29.740Z,101.25
2019-04-20T19:48:39.661Z,101.02
2019-04-20T19:51:21.563Z,85.85
2019-04-20T19:53:48.824Z,91.57
2019-04-20T19:56:16.986Z,88.92
2019-04-20T19:58:52.593Z,62.58
2019-04-20T20:01:09.301Z,84.65
2019-04-20T20:03:41.683Z,86.70
2019-04-20T20:06:23.735Z,81.35
2019-04-20T20:08:53.170Z,104.97
2019-04-20T20:11:26.456Z,140.35
2019-04-20T20:13:53.235Z,119.25
2019-04-20T20:16:32.574Z,110.40
2019-04-20T20:19:07.381Z,121.02
2019-04-20T20:21:46.778Z,102.70
2019-04-20T20:24:01.988Z,78.02
2019-04-20T20:26:38.701Z,111.75
2019-04-20T20:29:17.138Z,122.45
2019-04-20T20:31:56.693Z,95.45
2019-04-20T20:34:22.141Z,88.67
2019-04-20T20:36:57.140Z,89.15
2019-04-20T20:39:30.600Z,70.45
2019-04-20T20:42:14.106Z,76.00
2019-04-20T20:44:41.079Z,60.98
2019-04-20T20:47:31.670Z,55.80
2019-04-20T20:50:03.255Z,77.37
2019-04-20T20:52:27.695Z,73.80
2019-04-20T20:54:55.830Z,69.12
2019-04-20T20:57:24.788Z,64.85
2019-04-20T21:00:00.468Z,73.55
2019-04-20T21:02:40.175Z,73.65
2019-04-20T21:04:59.610Z,94.75
2019-04-20T21:07:30.955Z,116.03
2019-04-20T21:10:01.950Z,86.85
2019-04-20T21:12:37.330Z,103.32
2019-04-20T21:15:13.425Z,97.47
2019-04-20T21:18:05.545Z,115.03
2019-04-20T21:20:27.575Z,265.00
2019-04-20T21:23:02.671Z,272.75
2019-04-20T21:25:19.156Z,250.90
2019-04-20T21:27:50.879Z,266.20
2019-04-20T21:30:30.008Z,284.92
2019-04-20T21:33:00.004Z,241.17
2019-04-20T21:35:31.310Z,223.40
2019-04-20T21:38:06.102Z,209.60
2019-04-20T21:40:36.270Z,171.87
2019-04-20T21:43:07.255Z,141.50
2019-04-20T21:45:38.070Z,120.17
2019-04-20T21:48:23.148Z,133.60
2019-04-20T21:50:58.287Z,148.45
2019-04-20T21:53:18.292Z,139.85
2019-04-20T21:55:46.016Z,116.22
2019-04-20T21:58:18.417Z,114.85
2019-04-20T22:01:07.124Z,120.08
2019-04-20T22:03:27.516Z,91.63
2019-04-20T22:06:04.860Z,97.17
2019-04-20T22:08:39.403Z,105.32
2019-04-20T22:11:09.567Z,120.80
2019-04-20T22:13:43.619Z,145.53
2019-04-20T22:16:14.742Z,152.15
2019-04-20T22:18:53.025Z,185.30
2019-04-20T22:21:25.468Z,174.95
2019-04-20T22:24:03.213Z,165.65
2019-04-20T22:26:32.165Z,156.97
2019-04-20T22:28:56.308Z,133.47
2019-04-20T22:31:27.357Z,72.42
2019-04-20T22:34:00.833Z,69.65
2019-04-20T22:36:36.918Z,70.80
2019-04-20T22:39:09.333Z,88.95
2019-04-20T22:41:46.653Z,87.30
2019-04-20T22:44:20.290Z,90.25
2019-04-20T22:46:47.686Z,94.95
2019-04-20T22:49:35.975Z,93.40
2019-04-20T22:52:00.597Z,96.45
2019-04-20T22:54:39.511Z,92.35
2019-04-20T22:57:05.982Z,99.28
2019-04-20T22:59:39.820Z,99.95
2019-04-20T23:02:03.898Z,90.83
2019-04-20T23:04:34.959Z,76.15
2019-04-20T23:07:05.839Z,85.50
2019-04-20T23:09:43.838Z,96.87
2019-04-20T23:12:15.747Z,154.32
2019-04-20T23:14:42.454Z,142.60
2019-04-20T23:17:18.364Z,132.43
2019-04-20T23:19:52.109Z,143.85
2019-04-20T23:22:19.224Z,178.35
2019-04-20T23:24:51.174Z,126.75
2019-04-20T23:27:26.307Z,130.95
2019-04-20T23:29:55.244Z,91.42
2019-04-20T23:32:29.990Z,98.03
2019-04-20T23:35:05.909Z,73.35
2019-04-20T23:37:33.823Z,78.40
2019-04-20T23:40:06.327Z,88.70
2019-04-20T23:42:44.140Z,75.72
2019-04-20T23:45:17.400Z,77.12
2019-04-20T23:47:57.871Z,84.87
2019-04-20T23:50:41.000Z,80.87
2019-04-20T23:53:14.097Z,71.62
2019-04-20T23:55:31.805Z,66.77
2019-04-20T23:58:06.534Z,68.33
